sensor_id;sensor_type;location;lat;lon;timestamp;P1;durP1;ratioP1;P2;durP2;ratioP2
26622;SDS011;14254;50.968;5.366;2023-01-28T17:21:10;40.47;;;18.50;;
26622;SDS011;14254;50.968;5.366;2023-01-28T17:23:36;36.60;;;18.35;;
26622;SDS011;14254;50.968;5.366;2023-01-28T17:26:06;35.25;;;17.90;;
26622;SDS011;14254;50.968;5.366;2023-01-28T17:28:34;33.35;;;17.83;;
26622;SDS011;14254;50.968;5.366;2023-01-28T17:31:06;41.47;;;19.67;;
26622;SDS011;14254;50.968;5.366;2023-01-28T17:33:33;41.58;;;18.23;;
26622;SDS011;14254;50.968;5.366;2023-01-28T17:35:59;40.90;;;18.17;;
26622;SDS011;14254;50.968;5.366;2023-01-28T17:38:26;36.67;;;17.65;;
26622;SDS011;14254;50.968;5.366;2023-01-28T17:40:52;33.60;;;17.05;;
26622;SDS011;14254;50.968;5.366;2023-01-28T17:43:18;40.20;;;19.95;;
26622;SDS011;14254;50.968;5.366;2023-01-28T17:45:43;37.75;;;18.52;;
26622;SDS011;14254;50.968;5.366;2023-01-28T17:48:09;37.75;;;17.45;;
26622;SDS011;14254;50.968;5.366;2023-01-28T17:50:37;38.63;;;17.80;;
26622;SDS011;14254;50.968;5.366;2023-01-28T17:53:04;39.05;;;19.30;;
26622;SDS011;14254;50.968;5.366;2023-01-28T17:55:30;38.40;;;17.92;;
26622;SDS011;14254;50.968;5.366;2023-01-28T17:57:58;34.17;;;17.40;;
26622;SDS011;14254;50.968;5.366;2023-01-28T18:00:24;34.65;;;17.50;;
26622;SDS011;14254;50.968;5.366;2023-01-28T18:02:51;34.60;;;15.68;;
26622;SDS011;14254;50.968;5.366;2023-01-28T18:05:17;42.55;;;18.65;;
26622;SDS011;14254;50.968;5.366;2023-01-28T18:07:43;40.17;;;20.33;;
26622;SDS011;14254;50.968;5.366;2023-01-28T18:10:10;43.78;;;19.88;;
26622;SDS011;14254;50.968;5.366;2023-01-28T18:12:37;45.83;;;21.88;;
26622;SDS011;14254;50.968;5.366;2023-01-28T18:15:03;45.22;;;21.05;;
26622;SDS011;14254;50.968;5.366;2023-01-28T18:17:28;49.88;;;23.70;;
26622;SDS011;14254;50.968;5.366;2023-01-28T18:19:54;47.53;;;22.80;;
26622;SDS011;14254;50.968;5.366;2023-01-28T18:22:21;50.60;;;22.08;;
26622;SDS011;14254;50.968;5.366;2023-01-28T18:24:47;44.95;;;22.60;;
26622;SDS011;14254;50.968;5.366;2023-01-28T18:27:13;49.05;;;21.95;;
26622;SDS011;14254;50.968;5.366;2023-01-28T18:29:38;47.08;;;21.38;;
26622;SDS011;14254;50.968;5.366;2023-01-28T18:32:04;45.00;;;21.77;;
26622;SDS011;14254;50.968;5.366;2023-01-28T18:34:31;38.55;;;19.15;;
26622;SDS011;14254;50.968;5.366;2023-01-28T18:36:57;45.38;;;20.30;;
26622;SDS011;14254;50.968;5.366;2023-01-28T18:39:26;46.47;;;22.90;;
26622;SDS011;14254;50.968;5.366;2023-01-28T18:41:54;37.63;;;18.17;;
26622;SDS011;14254;50.968;5.366;2023-01-28T18:44:20;39.10;;;18.35;;
26622;SDS011;14254;50.968;5.366;2023-01-28T18:46:47;38.78;;;18.13;;
26622;SDS011;14254;50.968;5.366;2023-01-28T18:49:13;38.97;;;18.45;;
26622;SDS011;14254;50.968;5.366;2023-01-28T18:51:39;40.85;;;18.77;;
26622;SDS011;14254;50.968;5.366;2023-01-28T18:54:04;36.72;;;18.15;;
26622;SDS011;14254;50.968;5.366;2023-01-28T18:56:31;43.53;;;18.60;;
26622;SDS011;14254;50.968;5.366;2023-01-28T18:59:01;46.85;;;21.83;;
26622;SDS011;14254;50.968;5.366;2023-01-28T19:01:29;48.30;;;22.85;;
26622;SDS011;14254;50.968;5.366;2023-01-28T19:03:56;47.85;;;21.95;;
26622;SDS011;14254;50.968;5.366;2023-01-28T19:06:23;49.60;;;23.50;;
26622;SDS011;14254;50.968;5.366;2023-01-28T19:08:50;50.28;;;22.75;;
26622;SDS011;14254;50.968;5.366;2023-01-28T19:11:17;49.10;;;22.98;;
26622;SDS011;14254;50.968;5.366;2023-01-28T19:13:43;45.25;;;20.38;;
26622;SDS011;14254;50.968;5.366;2023-01-28T19:16:09;44.88;;;21.00;;
26622;SDS011;14254;50.968;5.366;2023-01-28T19:18:35;48.05;;;21.30;;
26622;SDS011;14254;50.968;5.366;2023-01-28T19:21:04;47.40;;;20.75;;
26622;SDS011;14254;50.968;5.366;2023-01-28T19:23:30;53.60;;;21.80;;
26622;SDS011;14254;50.968;5.366;2023-01-28T19:26:00;46.35;;;21.98;;
26622;SDS011;14254;50.968;5.366;2023-01-28T19:28:31;46.17;;;21.58;;
26622;SDS011;14254;50.968;5.366;2023-01-28T19:30:57;45.70;;;20.42;;
26622;SDS011;14254;50.968;5.366;2023-01-28T19:33:23;44.30;;;21.50;;
26622;SDS011;14254;50.968;5.366;2023-01-28T19:35:53;48.75;;;22.17;;
26622;SDS011;14254;50.968;5.366;2023-01-28T19:38:20;46.53;;;21.77;;
26622;SDS011;14254;50.968;5.366;2023-01-28T19:40:46;46.58;;;21.85;;
26622;SDS011;14254;50.968;5.366;2023-01-28T19:43:11;48.25;;;20.52;;
26622;SDS011;14254;50.968;5.366;2023-01-28T19:45:37;47.15;;;22.02;;
26622;SDS011;14254;50.968;5.366;2023-01-28T19:48:03;50.63;;;22.50;;
26622;SDS011;14254;50.968;5.366;2023-01-28T19:50:29;53.33;;;23.92;;
26622;SDS011;14254;50.968;5.366;2023-01-28T19:52:55;47.10;;;21.25;;
26622;SDS011;14254;50.968;5.366;2023-01-28T19:55:21;46.42;;;20.38;;
26622;SDS011;14254;50.968;5.366;2023-01-28T19:57:46;49.28;;;19.88;;
26622;SDS011;14254;50.968;5.366;2023-01-28T20:00:14;38.50;;;18.63;;
26622;SDS011;14254;50.968;5.366;2023-01-28T20:02:39;45.58;;;20.42;;
26622;SDS011;14254;50.968;5.366;2023-01-28T20:05:06;49.88;;;21.63;;
26622;SDS011;14254;50.968;5.366;2023-01-28T20:07:32;49.72;;;22.15;;
26622;SDS011;14254;50.968;5.366;2023-01-28T20:09:57;42.70;;;20.40;;
26622;SDS011;14254;50.968;5.366;2023-01-28T20:12:23;44.08;;;20.65;;
26622;SDS011;14254;50.968;5.366;2023-01-28T20:14:49;39.97;;;18.38;;
26622;SDS011;14254;50.968;5.366;2023-01-28T20:17:15;51.97;;;23.48;;
26622;SDS011;14254;50.968;5.366;2023-01-28T20:19:40;48.00;;;21.95;;
26622;SDS011;14254;50.968;5.366;2023-01-28T20:22:06;44.05;;;21.52;;
26622;SDS011;14254;50.968;5.366;2023-01-28T20:24:32;44.00;;;20.88;;
26622;SDS011;14254;50.968;5.366;2023-01-28T20:26:57;43.00;;;19.40;;
26622;SDS011;14254;50.968;5.366;2023-01-28T20:29:23;51.72;;;20.73;;
26622;SDS011;14254;50.968;5.366;2023-01-28T20:31:49;47.15;;;21.63;;
26622;SDS011;14254;50.968;5.366;2023-01-28T20:34:15;45.63;;;20.90;;
26622;SDS011;14254;50.968;5.366;2023-01-28T20:36:43;44.55;;;20.73;;
26622;SDS011;14254;50.968;5.366;2023-01-28T20:39:09;40.20;;;18.75;;
26622;SDS011;14254;50.968;5.366;2023-01-28T20:41:35;38.63;;;17.48;;
26622;SDS011;14254;50.968;5.366;2023-01-28T20:44:01;45.30;;;18.27;;
26622;SDS011;14254;50.968;5.366;2023-01-28T20:46:28;41.70;;;18.17;;
26622;SDS011;14254;50.968;5.366;2023-01-28T20:48:56;44.63;;;18.63;;
26622;SDS011;14254;50.968;5.366;2023-01-28T20:51:27;46.17;;;19.90;;
26622;SDS011;14254;50.968;5.366;2023-01-28T20:53:54;39.47;;;15.93;;
26622;SDS011;14254;50.968;5.366;2023-01-28T20:56:22;43.30;;;18.73;;
26622;SDS011;14254;50.968;5.366;2023-01-28T20:58:56;43.97;;;19.63;;
26622;SDS011;14254;50.968;5.366;2023-01-28T21:01:25;50.90;;;21.40;;
26622;SDS011;14254;50.968;5.366;2023-01-28T21:03:53;53.00;;;20.20;;
26622;SDS011;14254;50.968;5.366;2023-01-28T21:06:20;48.80;;;20.52;;
26622;SDS011;14254;50.968;5.366;2023-01-28T21:08:46;42.17;;;18.60;;
26622;SDS011;14254;50.968;5.366;2023-01-28T21:11:12;41.60;;;18.42;;
26622;SDS011;14254;50.968;5.366;2023-01-28T21:13:38;41.60;;;18.10;;
26622;SDS011;14254;50.968;5.366;2023-01-28T21:16:04;42.92;;;18.83;;
26622;SDS011;14254;50.968;5.366;2023-01-28T21:18:31;40.10;;;17.25;;
26622;SDS011;14254;50.968;5.366;2023-01-28T21:21:08;37.70;;;17.27;;
26622;SDS011;14254;50.968;5.366;2023-01-28T21:26:04;37.47;;;16.60;;
26622;SDS011;14254;50.968;5.366;2023-01-28T21:28:30;39.55;;;16.73;;
26622;SDS011;14254;50.968;5.366;2023-01-28T21:31:06;35.90;;;17.10;;
26622;SDS011;14254;50.968;5.366;2023-01-28T21:33:33;43.20;;;18.48;;
26622;SDS011;14254;50.968;5.366;2023-01-28T21:35:59;41.10;;;17.13;;
26622;SDS011;14254;50.968;5.366;2023-01-28T21:38:24;42.35;;;17.02;;
26622;SDS011;14254;50.968;5.366;2023-01-28T21:40:50;43.78;;;18.20;;
26622;SDS011;14254;50.968;5.366;2023-01-28T21:43:16;43.78;;;18.42;;
26622;SDS011;14254;50.968;5.366;2023-01-28T21:45:42;41.63;;;18.67;;
26622;SDS011;14254;50.968;5.366;2023-01-28T21:48:11;45.08;;;19.08;;
26622;SDS011;14254;50.968;5.366;2023-01-28T21:50:37;49.55;;;21.73;;
26622;SDS011;14254;50.968;5.366;2023-01-28T21:53:23;53.55;;;23.35;;
26622;SDS011;14254;50.968;5.366;2023-01-28T21:55:48;53.75;;;22.08;;
26622;SDS011;14254;50.968;5.366;2023-01-28T21:58:14;55.55;;;22.73;;
26622;SDS011;14254;50.968;5.366;2023-01-28T22:01:09;56.60;;;23.50;;
26622;SDS011;14254;50.968;5.366;2023-01-28T22:03:35;57.35;;;24.13;;
26622;SDS011;14254;50.968;5.366;2023-01-28T22:06:00;66.43;;;26.52;;
26622;SDS011;14254;50.968;5.366;2023-01-28T22:08:26;73.53;;;29.75;;
26622;SDS011;14254;50.968;5.366;2023-01-28T22:10:52;72.72;;;27.33;;
26622;SDS011;14254;50.968;5.366;2023-01-28T22:13:19;72.35;;;28.50;;
26622;SDS011;14254;50.968;5.366;2023-01-28T22:15:44;62.95;;;25.40;;
26622;SDS011;14254;50.968;5.366;2023-01-28T22:18:10;60.58;;;26.60;;
26622;SDS011;14254;50.968;5.366;2023-01-28T22:20:36;72.43;;;28.25;;
26622;SDS011;14254;50.968;5.366;2023-01-28T22:23:02;64.28;;;26.08;;
26622;SDS011;14254;50.968;5.366;2023-01-28T22:25:27;69.45;;;28.05;;
26622;SDS011;14254;50.968;5.366;2023-01-28T22:27:53;75.47;;;30.98;;
26622;SDS011;14254;50.968;5.366;2023-01-28T22:30:19;76.35;;;30.58;;
26622;SDS011;14254;50.968;5.366;2023-01-28T22:32:44;75.82;;;30.35;;
26622;SDS011;14254;50.968;5.366;2023-01-28T22:35:10;79.57;;;33.03;;
26622;SDS011;14254;50.968;5.366;2023-01-28T22:37:36;78.15;;;30.52;;
26622;SDS011;14254;50.968;5.366;2023-01-28T22:40:01;78.53;;;30.40;;
26622;SDS011;14254;50.968;5.366;2023-01-28T22:42:27;74.38;;;31.35;;
26622;SDS011;14254;50.968;5.366;2023-01-28T22:44:53;74.20;;;30.67;;
26622;SDS011;14254;50.968;5.366;2023-01-28T22:47:18;87.88;;;36.10;;
26622;SDS011;14254;50.968;5.366;2023-01-28T22:49:44;74.90;;;32.45;;
26622;SDS011;14254;50.968;5.366;2023-01-28T22:52:10;87.07;;;34.05;;
26622;SDS011;14254;50.968;5.366;2023-01-28T22:54:35;83.38;;;33.25;;
26622;SDS011;14254;50.968;5.366;2023-01-28T22:57:01;68.40;;;31.02;;
26622;SDS011;14254;50.968;5.366;2023-01-28T22:59:27;72.50;;;30.83;;
26622;SDS011;14254;50.968;5.366;2023-01-28T23:01:53;77.20;;;31.20;;
26622;SDS011;14254;50.968;5.366;2023-01-28T23:04:18;77.35;;;31.05;;
26622;SDS011;14254;50.968;5.366;2023-01-28T23:06:44;69.75;;;31.95;;
26622;SDS011;14254;50.968;5.366;2023-01-28T23:09:10;67.93;;;30.55;;
26622;SDS011;14254;50.968;5.366;2023-01-28T23:11:35;72.45;;;31.50;;
26622;SDS011;14254;50.968;5.366;2023-01-28T23:14:01;76.57;;;31.67;;
26622;SDS011;14254;50.968;5.366;2023-01-28T23:16:46;64.97;;;27.55;;
26622;SDS011;14254;50.968;5.366;2023-01-28T23:19:31;65.28;;;27.33;;
26622;SDS011;14254;50.968;5.366;2023-01-28T23:22:23;58.60;;;25.88;;
26622;SDS011;14254;50.968;5.366;2023-01-28T23:25:12;59.35;;;25.13;;
26622;SDS011;14254;50.968;5.366;2023-01-28T23:27:39;65.40;;;28.85;;
26622;SDS011;14254;50.968;5.366;2023-01-28T23:30:05;66.38;;;27.20;;
26622;SDS011;14254;50.968;5.366;2023-01-28T23:32:37;65.63;;;27.48;;
26622;SDS011;14254;50.968;5.366;2023-01-28T23:35:07;70.30;;;28.67;;
26622;SDS011;14254;50.968;5.366;2023-01-28T23:37:33;77.80;;;30.80;;
26622;SDS011;14254;50.968;5.366;2023-01-28T23:39:59;69.28;;;29.65;;
26622;SDS011;14254;50.968;5.366;2023-01-28T23:42:25;65.95;;;29.17;;
26622;SDS011;14254;50.968;5.366;2023-01-28T23:44:51;73.57;;;29.13;;
26622;SDS011;14254;50.968;5.366;2023-01-28T23:47:17;67.90;;;29.38;;
26622;SDS011;14254;50.968;5.366;2023-01-28T23:49:42;71.13;;;30.17;;
26622;SDS011;14254;50.968;5.366;2023-01-28T23:52:08;68.10;;;28.88;;
26622;SDS011;14254;50.968;5.366;2023-01-28T23:54:34;65.95;;;28.75;;
26622;SDS011;14254;50.968;5.366;2023-01-28T23:57:00;63.35;;;28.70;;
26622;SDS011;14254;50.968;5.366;2023-01-28T23:59:26;69.15;;;31.55;;
